Heidi L. Brusco — WDC9175 — position and weather

sailwx.info

Track history (hours):
 
Tides and Currents Weather Stations Pressure Air Temp Water Temp Dewpoint Dewpoint Depression Visibility Wind Speed Wind Dir Waves Ship Positions

Heidi L. Brusco

Owner: Brusco Tug & Barge, Inc., Longview, WA. More information available from US FCC via Universal Licensing System and Coast Guard Vessel Documentation Center.

Last reported at 2018-Feb-24 22:35 UTC. Time now 2018-Feb-24 23:34 UTC.
Position N 37°37' W 123°12'.

Length 35 m; draft 3.5 m.

Type: Tug. MMSI: 366916022.

Date/timePositionNaut miles runAvg speedWind from/ knotsBaromVisibWave heightAir tempDewpointWater temp
2018-Feb-24 22:35N 37°37' W 123°12'1 6.8
2018-Feb-24 22:22N 37°37' W 123°10'3 7.2
2018-Feb-24 22:00N 37°37' W 123°07'4 7.1
2018-Feb-24 21:30N 37°36' W 123°03'4 6.8
2018-Feb-24 20:59N 37°37' W 122°58'4 7.7
2018-Feb-24 20:30N 37°39' W 122°55'4 7.6
2018-Feb-24 20:00N 37°41' W 122°51'4 7.5
2018-Feb-24 19:30N 37°43' W 122°46'4 7.6
2018-Feb-24 19:00N 37°45' W 122°42'4 7.2
2018-Feb-24 18:30N 37°46' W 122°38'4 9.0
2018-Feb-24 18:00N 37°48' W 122°33'510.1
2018-Feb-24 17:30N 37°50' W 122°27'4 8.7
2018-Feb-24 17:00N 37°48' W 122°22'2 4.1
2018-Feb-24 16:30N 37°49' W 122°19'0 0.1
2018-Feb-24 16:00N 37°49' W 122°19'2 4.4
2018-Feb-24 15:30N 37°48' W 122°22'4 7.8
2018-Feb-24 15:00N 37°49' W 122°26'4 8.0
2018-Feb-24 14:30N 37°48' W 122°31'5 9.0
2018-Feb-24 14:00N 37°46' W 122°36'4 8.8
2018-Feb-24 13:30N 37°44' W 122°41'4 7.9
2018-Feb-24 13:00N 37°42' W 122°45'6 9.3
2018-Feb-24 12:23N 37°38' W 122°51'4 9.1
2018-Feb-24 12:00N 37°37' W 122°55'5 9.2
2018-Feb-24 11:30N 37°34' W 123°00'12 2.6
2018-Feb-24 06:55N 37°38' W 123°15'3 6.5
2018-Feb-24 06:28N 37°37' W 123°11'3 6.3
2018-Feb-24 06:00N 37°37' W 123°08'3 6.4
2018-Feb-24 05:30N 37°36' W 123°04'3 6.8
2018-Feb-24 05:00N 37°37' W 122°59'4 7.9
2018-Feb-24 04:30N 37°39' W 122°55'4 8.1
2018-Feb-24 04:00N 37°41' W 122°51'4 8.3
2018-Feb-24 03:30N 37°43' W 122°46'4 8.3
2018-Feb-24 03:00N 37°45' W 122°42'4 7.7
2018-Feb-24 02:30N 37°46' W 122°37'4 7.6
2018-Feb-24 02:00N 37°48' W 122°33'4 7.3
2018-Feb-24 01:30N 37°49' W 122°29'3 5.7
2018-Feb-24 01:00N 37°50' W 122°25'3 5.7
2018-Feb-24 00:30N 37°49' W 122°22'2 3.8
2018-Feb-24 00:00N 37°49' W 122°19'1 1.3
2018-Feb-23 23:30N 37°49' W 122°19'0 0.0
2018-Feb-23 23:00N 37°49' W 122°19'0 0.0
2018-Feb-23 22:30N 37°49' W 122°19'0 0.0
2018-Feb-23 22:00N 37°49' W 122°19'0 0.0
2018-Feb-23 21:30N 37°49' W 122°19'0 0.0
2018-Feb-23 21:00N 37°49' W 122°19'0 0.0
2018-Feb-23 20:30N 37°49' W 122°19'0 0.0
2018-Feb-23 20:00N 37°49' W 122°19'0 0.0
2018-Feb-23 19:30N 37°49' W 122°19'0 0.0
2018-Feb-23 19:00N 37°49' W 122°19'0 0.0
2018-Feb-23 18:30N 37°49' W 122°19'0 0.0
2018-Feb-23 18:00N 37°49' W 122°19'0 0.0
2018-Feb-23 17:30N 37°49' W 122°19'0 0.0
2018-Feb-23 17:00N 37°49' W 122°19'0 0.0
2018-Feb-23 16:30N 37°49' W 122°19'0 0.0
2018-Feb-23 16:00N 37°49' W 122°19'1 1.1
2018-Feb-23 15:30N 37°49' W 122°19'1 1.1
2018-Feb-23 15:00N 37°49' W 122°19'0 0.0
2018-Feb-23 14:30N 37°49' W 122°19'0 0.0
2018-Feb-23 14:00N 37°49' W 122°19'0 0.0
2018-Feb-23 13:30N 37°49' W 122°19'0 0.7
2018-Feb-23 13:00N 37°49' W 122°19'2 3.7
2018-Feb-23 12:30N 37°50' W 122°21'1 2.9
2018-Feb-23 12:00N 37°49' W 122°20'1 2.5
2018-Feb-23 11:30N 37°49' W 122°19'1 1.0
2018-Feb-23 11:00N 37°49' W 122°19'1 1.0
2018-Feb-23 10:30N 37°49' W 122°19'0 0.0
2018-Feb-23 10:00N 37°49' W 122°19'0 0.0
2018-Feb-23 09:30N 37°49' W 122°19'0 0.0
2018-Feb-23 09:00N 37°49' W 122°19'0 0.0
2018-Feb-23 08:30N 37°49' W 122°19'0 0.0
2018-Feb-23 08:00N 37°49' W 122°19'0 0.0
2018-Feb-23 07:31N 37°49' W 122°19'0 0.0
2018-Feb-23 07:00N 37°49' W 122°19'0 0.0
2018-Feb-23 06:30N 37°49' W 122°19'0 0.0
2018-Feb-23 06:01N 37°49' W 122°19'0 0.0
2018-Feb-23 05:30N 37°49' W 122°19'0 0.0
2018-Feb-23 05:00N 37°49' W 122°19'0 0.6
2018-Feb-23 04:30N 37°49' W 122°19'0 0.0
2018-Feb-23 04:00N 37°49' W 122°19'0 0.0
2018-Feb-23 03:30N 37°49' W 122°19'0 0.0
2018-Feb-23 03:00N 37°49' W 122°19'0 0.0
2018-Feb-23 02:30N 37°49' W 122°19'1 1.4
2018-Feb-23 02:00N 37°49' W 122°19'1 1.7
2018-Feb-23 01:30N 37°49' W 122°19'0 0.0
2018-Feb-23 00:57N 37°49' W 122°19'0 0.0
2018-Feb-23 00:31N 37°49' W 122°19'0 0.0
2018-Feb-23 00:00N 37°49' W 122°19'0 0.0
2018-Feb-22 23:30N 37°49' W 122°19'0 0.0
2018-Feb-22 22:59N 37°49' W 122°19'0 0.0
2018-Feb-22 22:31N 37°49' W 122°19'0 0.0
2018-Feb-22 22:00N 37°49' W 122°19'0 0.0
2018-Feb-22 21:30N 37°49' W 122°19'0 0.0
2018-Feb-22 21:01N 37°49' W 122°19'0 0.0
2018-Feb-22 20:30N 37°49' W 122°19'0 0.0
2018-Feb-22 20:01N 37°49' W 122°19'0 0.0
2018-Feb-22 19:30N 37°49' W 122°19'0 0.0
2018-Feb-22 19:01N 37°49' W 122°19'0 0.0
2018-Feb-22 18:31N 37°49' W 122°19'0 0.1
2018-Feb-22 18:00N 37°49' W 122°19'1 1.6
2018-Feb-22 17:31N 37°49' W 122°19'1 1.6
2018-Feb-22 17:00N 37°49' W 122°19'0 0.0
2018-Feb-22 16:28N 37°49' W 122°19'0 0.0
2018-Feb-22 16:00N 37°49' W 122°19'0 0.0
2018-Feb-22 15:30N 37°49' W 122°19'0 0.0
2018-Feb-22 15:01N 37°49' W 122°19'0 0.0
2018-Feb-22 14:29N 37°49' W 122°19'0 0.0
2018-Feb-22 14:01N 37°49' W 122°19'0 0.0
2018-Feb-22 13:30N 37°49' W 122°19'0 0.0
2018-Feb-22 13:00N 37°49' W 122°19'0 0.0
2018-Feb-22 12:30N 37°49' W 122°19'0 0.0
2018-Feb-22 12:01N 37°49' W 122°19'0 0.0
2018-Feb-22 11:30N 37°49' W 122°19'0 0.0
2018-Feb-22 11:00N 37°49' W 122°19'0 0.0
2018-Feb-22 10:30N 37°49' W 122°19'0 0.0
2018-Feb-22 10:01N 37°49' W 122°19'0 0.0
2018-Feb-22 09:31N 37°49' W 122°19'0 0.0
2018-Feb-22 09:01N 37°49' W 122°19'0 0.0
2018-Feb-22 08:31N 37°49' W 122°19'0 0.0
2018-Feb-22 08:01N 37°49' W 122°19'0 0.0
2018-Feb-22 07:30N 37°49' W 122°19'0 0.0
2018-Feb-22 07:00N 37°49' W 122°19'0 0.0
2018-Feb-22 06:31N 37°49' W 122°19'0 0.0
2018-Feb-22 06:00N 37°49' W 122°19'0 0.0
2018-Feb-22 05:30N 37°49' W 122°19'0 0.0
2018-Feb-22 05:01N 37°49' W 122°19'0 0.0
2018-Feb-22 04:31N 37°49' W 122°19'0 0.0
2018-Feb-22 04:01N 37°49' W 122°19'0 0.0
2018-Feb-22 03:30N 37°49' W 122°19'0 0.1
2018-Feb-22 03:00N 37°49' W 122°19'2 4.9
2018-Feb-22 02:31N 37°50' W 122°22'2 3.7
2018-Feb-22 02:01N 37°50' W 122°24'3 6.9
2018-Feb-22 01:31N 37°49' W 122°28'4 8.2
2018-Feb-22 01:01N 37°47' W 122°33'4 8.6
2018-Feb-22 00:30N 37°45' W 122°38'4 7.4
2018-Feb-22 00:00N 37°43' W 122°42'5 9.1
2018-Feb-21 23:29N 37°41' W 122°47'4 9.1
2018-Feb-21 23:00N 37°39' W 122°51'5 9.1
2018-Feb-21 22:30N 37°36' W 122°56'4 8.8
2018-Feb-21 22:01N 37°34' W 123°01'9 2.0
2018-Feb-21 17:26N 37°38' W 123°11'3 7.9
2018-Feb-21 17:01N 37°38' W 123°07'4 7.5
2018-Feb-21 16:31N 37°38' W 123°02'4 8.0
2018-Feb-21 16:01N 37°38' W 122°57'4 7.9
2018-Feb-21 15:28N 37°40' W 122°52'4 8.1
2018-Feb-21 15:01N 37°42' W 122°48'4 8.0
2018-Feb-21 14:31N 37°44' W 122°44'4 7.9
2018-Feb-21 14:00N 37°45' W 122°39'4 8.3
2018-Feb-21 13:30N 37°47' W 122°34'5 9.2
2018-Feb-21 13:01N 37°49' W 122°29'4 7.8
2018-Feb-21 12:31N 37°50' W 122°24'3 6.8
2018-Feb-21 12:01N 37°48' W 122°21'1 2.6
2018-Feb-21 11:31N 37°49' W 122°19'2 4.0
2018-Feb-21 11:01N 37°48' W 122°21'2 4.0
2018-Feb-21 10:31N 37°49' W 122°24'510.6
2018-Feb-21 10:01N 37°48' W 122°30'610.9
2018-Feb-21 09:30N 37°46' W 122°37'5 9.9
2018-Feb-21 09:00N 37°43' W 122°42'4 7.4
2018-Feb-21 08:30N 37°41' W 122°46'5 9.5
2018-Feb-21 07:57N 37°38' W 122°51'5 9.7
2018-Feb-21 07:27N 37°36' W 122°57'5 9.7
2018-Feb-21 06:57N 37°33' W 123°02'8 1.8
2018-Feb-21 02:32N 37°37' W 123°11'0 6.2
2018-Feb-21 02:30N 37°37' W 123°10'3 7.1
2018-Feb-21 02:01N 37°37' W 123°06'4 7.2
2018-Feb-21 01:31N 37°36' W 123°01'4 7.5
2018-Feb-21 01:00N 37°38' W 122°57'4 7.7
2018-Feb-21 00:31N 37°40' W 122°53'4 7.8
2018-Feb-21 00:01N 37°42' W 122°49'4 7.7
2018-Feb-20 23:30N 37°43' W 122°44'4 7.2
2018-Feb-20 23:01N 37°45' W 122°40'4 7.1
2018-Feb-20 22:30N 37°47' W 122°36'3 6.7
2018-Feb-20 22:01N 37°48' W 122°32'3 6.2
2018-Feb-20 21:31N 37°49' W 122°29'3 5.3
2018-Feb-20 21:00N 37°50' W 122°25'3 6.3
2018-Feb-20 20:31N 37°48' W 122°22'2 4.8
2018-Feb-20 20:00N 37°49' W 122°19'1 1.3
2018-Feb-20 19:31N 37°49' W 122°19'0 0.0
2018-Feb-20 19:01N 37°49' W 122°19'0 0.0
2018-Feb-20 18:31N 37°49' W 122°19'0 0.1
2018-Feb-20 18:00N 37°49' W 122°19'0 0.0
2018-Feb-20 17:31N 37°49' W 122°19'0 0.0
2018-Feb-20 17:01N 37°49' W 122°19'0 0.0
2018-Feb-20 16:31N 37°49' W 122°19'0 0.0
2018-Feb-20 16:00N 37°49' W 122°19'0 0.0
2018-Feb-20 15:31N 37°49' W 122°19'0 0.0
2018-Feb-20 15:01N 37°49' W 122°19'0 0.0
2018-Feb-20 14:31N 37°49' W 122°19'0 0.0
2018-Feb-20 14:00N 37°49' W 122°19'0 0.0
2018-Feb-20 13:31N 37°49' W 122°19'0 0.0
2018-Feb-20 13:01N 37°49' W 122°19'0 0.0
2018-Feb-20 12:30N 37°49' W 122°19'0 0.0
2018-Feb-20 12:01N 37°49' W 122°19'0 0.0
2018-Feb-20 11:30N 37°49' W 122°19'0 0.0
2018-Feb-20 11:01N 37°49' W 122°19'0 0.0
2018-Feb-20 10:31N 37°49' W 122°19'0 0.0
2018-Feb-20 10:01N 37°49' W 122°19'0 0.0
2018-Feb-20 09:31N 37°49' W 122°19'0 0.0
2018-Feb-20 09:00N 37°49' W 122°19'0 0.0
2018-Feb-20 08:30N 37°49' W 122°19'0 0.0
2018-Feb-20 08:01N 37°49' W 122°19'0 0.0
2018-Feb-20 07:31N 37°49' W 122°19'0 0.0
2018-Feb-20 07:01N 37°49' W 122°19'0 0.0
2018-Feb-20 06:30N 37°49' W 122°19'0 0.0
2018-Feb-20 06:01N 37°49' W 122°19'0 0.0
2018-Feb-20 05:30N 37°49' W 122°19'0 0.0
2018-Feb-20 05:01N 37°49' W 122°19'0 0.0
2018-Feb-20 04:30N 37°49' W 122°19'0 0.0
2018-Feb-20 04:01N 37°49' W 122°19'0 0.0
2018-Feb-20 03:30N 37°49' W 122°19'0 0.0
2018-Feb-20 03:01N 37°49' W 122°19'0 0.0
2018-Feb-20 02:30N 37°49' W 122°19'0 0.0
2018-Feb-20 02:01N 37°49' W 122°19'0 0.0
2018-Feb-20 01:31N 37°49' W 122°19'0 0.0
2018-Feb-20 01:00N 37°49' W 122°19'0 0.0
2018-Feb-20 00:31N 37°49' W 122°19'0 0.0
2018-Feb-20 00:01N 37°49' W 122°19'0 0.0
2018-Feb-19 23:31N 37°49' W 122°19'0 0.0
2018-Feb-19 23:01N 37°49' W 122°19'0 0.0
2018-Feb-19 22:30N 37°49' W 122°19'0 0.0
2018-Feb-19 22:01N 37°49' W 122°19'0 0.5
2018-Feb-19 21:31N 37°49' W 122°19'2 3.8
2018-Feb-19 21:01N 37°50' W 122°21'0 0.1
2018-Feb-19 20:31N 37°50' W 122°21'0 0.0
2018-Feb-19 20:00N 37°50' W 122°21'1 1.6
2018-Feb-19 19:30N 37°49' W 122°21'2 4.4
2018-Feb-19 19:00N 37°49' W 122°19'0 0.0
2018-Feb-19 18:30N 37°49' W 122°19'0 0.0
2018-Feb-19 18:01N 37°49' W 122°19'0 0.0
2018-Feb-19 17:31N 37°49' W 122°19'0 0.0
2018-Feb-19 17:00N 37°49' W 122°19'0 0.0
2018-Feb-19 16:30N 37°49' W 122°19'0 0.0
2018-Feb-19 16:01N 37°49' W 122°19'0 0.0
2018-Feb-19 15:31N 37°49' W 122°19'0 0.0
2018-Feb-19 15:00N 37°49' W 122°19'0 0.0
2018-Feb-19 14:31N 37°49' W 122°19'0 0.0
2018-Feb-19 14:00N 37°49' W 122°19'0 0.0
2018-Feb-19 13:31N 37°49' W 122°19'2 4.4
2018-Feb-19 13:00N 37°49' W 122°21'1 1.5
2018-Feb-19 12:31N 37°50' W 122°21'0 0.0
2018-Feb-19 12:01N 37°50' W 122°21'0 0.0
2018-Feb-19 11:31N 37°50' W 122°21'0 0.0
2018-Feb-19 11:00N 37°50' W 122°21'0 0.1
2018-Feb-19 10:31N 37°50' W 122°21'0 0.0
2018-Feb-19 10:01N 37°50' W 122°21'0 0.0
2018-Feb-19 09:31N 37°50' W 122°21'0 0.0
2018-Feb-19 09:01N 37°50' W 122°21'0 0.0
2018-Feb-19 08:31N 37°50' W 122°21'0 0.0
2018-Feb-19 08:01N 37°50' W 122°21'0 0.0
2018-Feb-19 07:31N 37°50' W 122°21'0 0.0
2018-Feb-19 07:01N 37°50' W 122°21'0 0.0
2018-Feb-19 06:31N 37°50' W 122°21'0 0.0
2018-Feb-19 06:00N 37°50' W 122°21'0 0.0
2018-Feb-19 05:30N 37°50' W 122°21'0 0.0
2018-Feb-19 05:01N 37°50' W 122°21'0 0.0
2018-Feb-19 04:30N 37°50' W 122°21'0 0.0
2018-Feb-19 04:01N 37°50' W 122°21'0 0.1
2018-Feb-19 03:31N 37°50' W 122°21'0 0.0
2018-Feb-19 03:00N 37°50' W 122°21'0 0.0
2018-Feb-19 02:31N 37°50' W 122°21'0 0.0
2018-Feb-19 02:00N 37°50' W 122°21'0 0.0
2018-Feb-19 01:31N 37°50' W 122°21'0 0.0
2018-Feb-19 01:01N 37°50' W 122°21'0 0.3
2018-Feb-19 00:31N 37°50' W 122°21'2 3.3
2018-Feb-19 00:00N 37°49' W 122°19'1 1.3
2018-Feb-18 23:30N 37°49' W 122°19'0 0.0
2018-Feb-18 23:01N 37°49' W 122°19'0 0.0
2018-Feb-18 22:31N 37°49' W 122°19'0 0.0
2018-Feb-18 22:00N 37°49' W 122°19'0 0.0
2018-Feb-18 21:30N 37°49' W 122°19'0 0.0
2018-Feb-18 20:59N 37°49' W 122°19'0 0.0
2018-Feb-18 20:31N 37°49' W 122°19'0 0.0
2018-Feb-18 20:00N 37°49' W 122°19'0 0.0
2018-Feb-18 19:31N 37°49' W 122°19'0 0.0
2018-Feb-18 19:00N 37°49' W 122°19'0 0.0
2018-Feb-18 18:31N 37°49' W 122°19'0 0.0
2018-Feb-18 18:00N 37°49' W 122°19'0 0.0
2018-Feb-18 17:30N 37°49' W 122°19'0 0.1
2018-Feb-18 17:01N 37°49' W 122°19'0 0.0
2018-Feb-18 16:31N 37°49' W 122°19'0 0.0
2018-Feb-18 16:01N 37°49' W 122°19'0 0.0
2018-Feb-18 15:31N 37°49' W 122°19'0 0.0
2018-Feb-18 15:01N 37°49' W 122°19'0 0.0
2018-Feb-18 14:31N 37°49' W 122°19'0 0.0
2018-Feb-18 14:00N 37°49' W 122°19'0 0.0
2018-Feb-18 13:31N 37°49' W 122°19'0 0.0
2018-Feb-18 13:00N 37°49' W 122°19'0 0.0
2018-Feb-18 12:31N 37°49' W 122°19'0 0.0
2018-Feb-18 12:00N 37°49' W 122°19'0 0.0
2018-Feb-18 11:30N 37°49' W 122°19'0 0.0
2018-Feb-18 11:00N 37°49' W 122°19'0 0.0
2018-Feb-18 10:30N 37°49' W 122°19'0 0.0
2018-Feb-18 10:01N 37°49' W 122°19'0 0.0
2018-Feb-18 09:30N 37°49' W 122°19'0 0.0
2018-Feb-18 09:01N 37°49' W 122°19'0 0.0
2018-Feb-18 08:31N 37°49' W 122°19'0 0.0
2018-Feb-18 08:00N 37°49' W 122°19'0 0.0
2018-Feb-18 07:30N 37°49' W 122°19'0 0.9
2018-Feb-18 07:01N 37°49' W 122°19'0 0.5
2018-Feb-18 06:31N 37°49' W 122°19'0 0.5
2018-Feb-18 06:01N 37°49' W 122°19'0 0.0
2018-Feb-18 05:30N 37°49' W 122°19'0 0.0
2018-Feb-18 05:01N 37°49' W 122°19'0 0.0
2018-Feb-18 04:31N 37°49' W 122°19'0 0.0
2018-Feb-18 04:01N 37°49' W 122°19'0 0.0
2018-Feb-18 03:31N 37°49' W 122°19'0 0.0
2018-Feb-18 03:01N 37°49' W 122°19'0 0.0
2018-Feb-18 02:31N 37°49' W 122°19'0 0.0
2018-Feb-18 02:00N 37°49' W 122°19'0 0.0
2018-Feb-18 01:31N 37°49' W 122°19'0 0.0
2018-Feb-18 01:01N 37°49' W 122°19'0 0.0
2018-Feb-18 00:31N 37°49' W 122°19'0 0.0
2018-Feb-18 00:01N 37°49' W 122°19'0 0.0
2018-Feb-17 23:31N 37°49' W 122°19'0 0.0
2018-Feb-17 23:01N 37°49' W 122°19'0 0.0
2018-Feb-17 22:31N 37°49' W 122°19'0 0.0
2018-Feb-17 22:00N 37°49' W 122°19'0 0.0
2018-Feb-17 21:30N 37°49' W 122°19'0 0.0
2018-Feb-17 21:01N 37°49' W 122°19'0 0.0
2018-Feb-17 20:30N 37°49' W 122°19'0 0.0
2018-Feb-17 20:01N 37°49' W 122°19'0 0.0
2018-Feb-17 19:31N 37°49' W 122°19'0 0.0
2018-Feb-17 19:01N 37°49' W 122°19'0 0.0
2018-Feb-17 18:30N 37°49' W 122°19'0 0.0
2018-Feb-17 18:00N 37°49' W 122°19'0 0.0
2018-Feb-17 17:30N 37°49' W 122°19'0 0.0
2018-Feb-17 17:01N 37°49' W 122°19'0 0.0
2018-Feb-17 16:30N 37°49' W 122°19'0 0.1
2018-Feb-17 16:01N 37°49' W 122°19'0 0.2
2018-Feb-17 15:31N 37°49' W 122°19'2 4.9
2018-Feb-17 15:01N 37°50' W 122°22'2 4.2
2018-Feb-17 14:30N 37°49' W 122°24'3 6.8
2018-Feb-17 14:01N 37°49' W 122°29'3 5.7
2018-Feb-17 13:31N 37°48' W 122°32'2 5.0
2018-Feb-17 13:01N 37°47' W 122°35'4 7.1
2018-Feb-17 12:31N 37°45' W 122°39'4 8.4
2018-Feb-17 12:00N 37°43' W 122°43'3 6.4
2018-Feb-17 11:30N 37°41' W 122°47'4 8.0
2018-Feb-17 11:00N 37°39' W 122°51'4 8.0
2018-Feb-17 10:31N 37°36' W 122°55'4 7.5
2018-Feb-17 10:01N 37°34' W 122°59'4 7.2
2018-Feb-17 09:31N 37°33' W 123°03'4 7.6
2018-Feb-17 09:00N 37°34' W 123°07'17 7.0
2018-Feb-17 06:30N 37°39' W 123°28'4 6.5
2018-Feb-17 05:56N 37°38' W 123°24'3 6.3
2018-Feb-17 05:28N 37°38' W 123°20'4 6.3
2018-Feb-17 04:45N 37°38' W 123°14'2 6.3
2018-Feb-17 04:30N 37°37' W 123°12'3 6.5
2018-Feb-17 04:00N 37°37' W 123°08'3 6.5
2018-Feb-17 03:31N 37°37' W 123°04'3 6.4
2018-Feb-17 03:01N 37°37' W 123°00'3 6.8
2018-Feb-17 02:31N 37°38' W 122°56'4 7.5
2018-Feb-17 02:00N 37°40' W 122°52'4 7.5
2018-Feb-17 01:31N 37°42' W 122°48'4 7.4
2018-Feb-17 01:01N 37°44' W 122°44'3 6.9
2018-Feb-17 00:30N 37°45' W 122°40'4 8.2
2018-Feb-17 00:01N 37°46' W 122°35'4 8.4
2018-Feb-16 23:31N 37°48' W 122°30'4 8.0
2018-Feb-16 23:00N 37°50' W 122°26'4 8.0
2018-Feb-16 22:31N 37°48' W 122°21'2 3.4
2018-Feb-16 22:01N 37°49' W 122°19'0 0.8
2018-Feb-16 21:29N 37°49' W 122°19'0 0.1
2018-Feb-16 21:00N 37°49' W 122°19'0 0.1
2018-Feb-16 20:30N 37°49' W 122°19'0 0.1
2018-Feb-16 20:01N 37°49' W 122°19'0 0.5
2018-Feb-16 19:30N 37°49' W 122°19'0 0.0
2018-Feb-16 19:00N 37°49' W 122°19'0 0.1
2018-Feb-16 18:30N 37°49' W 122°19'0 0.1
2018-Feb-16 18:01N 37°49' W 122°19'0 0.0
2018-Feb-16 17:31N 37°49' W 122°19'0 0.0
2018-Feb-16 17:01N 37°49' W 122°19'0 0.0
2018-Feb-16 16:31N 37°49' W 122°19'0 0.0
2018-Feb-16 16:01N 37°49' W 122°19'0 0.0
2018-Feb-16 15:31N 37°49' W 122°19'0 0.0
2018-Feb-16 15:00N 37°49' W 122°19'0 0.0
2018-Feb-16 14:30N 37°49' W 122°19'0 0.0
2018-Feb-16 14:01N 37°49' W 122°19'0 0.0
2018-Feb-16 13:30N 37°49' W 122°19'0 0.0
2018-Feb-16 13:01N 37°49' W 122°19'0 0.0
2018-Feb-16 12:31N 37°49' W 122°19'0 0.0
2018-Feb-16 12:00N 37°49' W 122°19'0 0.0
2018-Feb-16 11:30N 37°49' W 122°19'0 0.0
2018-Feb-16 11:00N 37°49' W 122°19'0 0.0
2018-Feb-16 10:31N 37°49' W 122°19'0 0.0
2018-Feb-16 09:59N 37°49' W 122°19'0 0.0
2018-Feb-16 09:31N 37°49' W 122°19'0 0.0
2018-Feb-16 09:01N 37°49' W 122°19'0 0.0
2018-Feb-16 08:30N 37°49' W 122°19'0 0.0
2018-Feb-16 08:01N 37°49' W 122°19'0 0.0
2018-Feb-16 07:31N 37°49' W 122°19'0 0.0
2018-Feb-16 07:01N 37°49' W 122°19'0 0.0
2018-Feb-16 06:29N 37°49' W 122°19'0 0.0
2018-Feb-16 06:01N 37°49' W 122°19'0 0.0
2018-Feb-16 05:30N 37°49' W 122°19'0 0.6
2018-Feb-16 05:00N 37°49' W 122°19'0 0.6
2018-Feb-16 04:31N 37°49' W 122°19'0 0.0
2018-Feb-16 04:01N 37°49' W 122°19'0 0.0
2018-Feb-16 03:30N 37°49' W 122°19'0 0.0
2018-Feb-16 03:01N 37°49' W 122°19'0 0.0
2018-Feb-16 02:30N 37°49' W 122°19'0 0.0
2018-Feb-16 02:00N 37°49' W 122°19'0 0.0
2018-Feb-16 01:31N 37°49' W 122°19'0 0.0
2018-Feb-16 01:00N 37°49' W 122°19'0 0.0
2018-Feb-16 00:31N 37°49' W 122°19'0 0.7
2018-Feb-16 00:01N 37°49' W 122°19'0 0.7
2018-Feb-15 23:31N 37°49' W 122°19'0 0.0
2018-Feb-15 23:00N 37°49' W 122°19'0 0.0
2018-Feb-15 22:31N 37°49' W 122°19'0 0.0
2018-Feb-15 22:00N 37°49' W 122°19'0 0.0
2018-Feb-15 21:31N 37°49' W 122°19'0 0.0
2018-Feb-15 21:00N 37°49' W 122°19'0 0.0
2018-Feb-15 20:30N 37°49' W 122°19'0 0.0
2018-Feb-15 20:01N 37°49' W 122°19'0 0.0
2018-Feb-15 19:30N 37°49' W 122°19'0 0.0
2018-Feb-15 19:00N 37°49' W 122°19'0 0.0
2018-Feb-15 18:31N 37°49' W 122°19'0 0.0
2018-Feb-15 18:01N 37°49' W 122°19'0 0.0
2018-Feb-15 17:31N 37°49' W 122°19'0 0.9
2018-Feb-15 17:01N 37°49' W 122°19'0 0.9
2018-Feb-15 16:31N 37°49' W 122°19'0 0.6
2018-Feb-15 16:01N 37°49' W 122°19'0 0.6
2018-Feb-15 15:30N 37°49' W 122°19'0 0.0
2018-Feb-15 15:01N 37°49' W 122°19'0 0.0
2018-Feb-15 14:30N 37°49' W 122°19'0 0.0
2018-Feb-15 14:00N 37°49' W 122°19'0 0.0
2018-Feb-15 13:30N 37°49' W 122°19'0 0.0
2018-Feb-15 13:01N 37°49' W 122°19'0 0.0
2018-Feb-15 12:30N 37°49' W 122°19'0 0.0
2018-Feb-15 12:00N 37°49' W 122°19'0 0.0
2018-Feb-15 11:29N 37°49' W 122°19'0 0.0
2018-Feb-15 11:01N 37°49' W 122°19'0 0.0
2018-Feb-15 10:31N 37°49' W 122°19'0 0.0
2018-Feb-15 10:00N 37°49' W 122°19'0 0.0
2018-Feb-15 09:30N 37°49' W 122°19'0 0.0
2018-Feb-15 09:00N 37°49' W 122°19'0 0.0
2018-Feb-15 08:30N 37°49' W 122°19'0 0.0
2018-Feb-15 08:01N 37°49' W 122°19'0 0.0
2018-Feb-15 07:31N 37°49' W 122°19'0 0.0
2018-Feb-15 07:01N 37°49' W 122°19'0 0.0
2018-Feb-15 06:30N 37°49' W 122°19'0 0.0
2018-Feb-15 06:00N 37°49' W 122°19'0 0.0
2018-Feb-15 05:31N 37°49' W 122°19'0 0.0
2018-Feb-15 05:00N 37°49' W 122°19'0 0.0
2018-Feb-15 04:30N 37°49' W 122°19'0 0.0
2018-Feb-15 04:00N 37°49' W 122°19'0 0.0
2018-Feb-15 03:30N 37°49' W 122°19'0 0.0
2018-Feb-15 02:59N 37°49' W 122°19'0 0.0
2018-Feb-15 02:31N 37°49' W 122°19'0 0.0
2018-Feb-15 02:00N 37°49' W 122°19'0 0.0
2018-Feb-15 01:31N 37°49' W 122°19'0 0.0
2018-Feb-15 01:00N 37°49' W 122°19'0 0.0
2018-Feb-15 00:31N 37°49' W 122°19'0 0.0
2018-Feb-15 00:00N 37°49' W 122°19'0 0.0
2018-Feb-14 23:31N 37°49' W 122°19'0 0.0
2018-Feb-14 23:00N 37°49' W 122°19'  
Track history (hours):
 
Tides and Currents Weather Stations Pressure Air Temp Water Temp Dewpoint Dewpoint Depression Visibility Wind Speed Wind Dir Waves Ship Positions

Heidi L. Brusco

Owner: Brusco Tug & Barge, Inc., Longview, WA. More information available from US FCC via Universal Licensing System and Coast Guard Vessel Documentation Center.

Last reported at 2018-Feb-24 22:35 UTC. Time now 2018-Feb-24 23:34 UTC.
Position N 37°37' W 123°12'.

Length 35 m; draft 3.5 m.

Type: Tug. MMSI: 366916022.

Date/timePositionNaut miles runAvg speedWind from/ knotsBaromVisibWave heightAir tempDewpointWater temp
2018-Feb-24 22:35N 37°37' W 123°12'1 6.8
2018-Feb-24 22:22N 37°37' W 123°10'3 7.2
2018-Feb-24 22:00N 37°37' W 123°07'4 7.1
2018-Feb-24 21:30N 37°36' W 123°03'4 6.8
2018-Feb-24 20:59N 37°37' W 122°58'4 7.7
2018-Feb-24 20:30N 37°39' W 122°55'4 7.6
2018-Feb-24 20:00N 37°41' W 122°51'4 7.5
2018-Feb-24 19:30N 37°43' W 122°46'4 7.6
2018-Feb-24 19:00N 37°45' W 122°42'4 7.2
2018-Feb-24 18:30N 37°46' W 122°38'4 9.0
2018-Feb-24 18:00N 37°48' W 122°33'510.1
2018-Feb-24 17:30N 37°50' W 122°27'4 8.7
2018-Feb-24 17:00N 37°48' W 122°22'2 4.1
2018-Feb-24 16:30N 37°49' W 122°19'0 0.1
2018-Feb-24 16:00N 37°49' W 122°19'2 4.4
2018-Feb-24 15:30N 37°48' W 122°22'4 7.8
2018-Feb-24 15:00N 37°49' W 122°26'4 8.0
2018-Feb-24 14:30N 37°48' W 122°31'5 9.0
2018-Feb-24 14:00N 37°46' W 122°36'4 8.8
2018-Feb-24 13:30N 37°44' W 122°41'4 7.9
2018-Feb-24 13:00N 37°42' W 122°45'6 9.3
2018-Feb-24 12:23N 37°38' W 122°51'4 9.1
2018-Feb-24 12:00N 37°37' W 122°55'5 9.2
2018-Feb-24 11:30N 37°34' W 123°00'12 2.6
2018-Feb-24 06:55N 37°38' W 123°15'3 6.5
2018-Feb-24 06:28N 37°37' W 123°11'3 6.3
2018-Feb-24 06:00N 37°37' W 123°08'3 6.4
2018-Feb-24 05:30N 37°36' W 123°04'3 6.8
2018-Feb-24 05:00N 37°37' W 122°59'4 7.9
2018-Feb-24 04:30N 37°39' W 122°55'4 8.1
2018-Feb-24 04:00N 37°41' W 122°51'4 8.3
2018-Feb-24 03:30N 37°43' W 122°46'4 8.3
2018-Feb-24 03:00N 37°45' W 122°42'4 7.7
2018-Feb-24 02:30N 37°46' W 122°37'4 7.6
2018-Feb-24 02:00N 37°48' W 122°33'4 7.3
2018-Feb-24 01:30N 37°49' W 122°29'3 5.7
2018-Feb-24 01:00N 37°50' W 122°25'3 5.7
2018-Feb-24 00:30N 37°49' W 122°22'2 3.8
2018-Feb-24 00:00N 37°49' W 122°19'1 1.3
2018-Feb-23 23:30N 37°49' W 122°19'0 0.0
2018-Feb-23 23:00N 37°49' W 122°19'0 0.0
2018-Feb-23 22:30N 37°49' W 122°19'0 0.0
2018-Feb-23 22:00N 37°49' W 122°19'0 0.0
2018-Feb-23 21:30N 37°49' W 122°19'0 0.0
2018-Feb-23 21:00N 37°49' W 122°19'0 0.0
2018-Feb-23 20:30N 37°49' W 122°19'0 0.0
2018-Feb-23 20:00N 37°49' W 122°19'0 0.0
2018-Feb-23 19:30N 37°49' W 122°19'0 0.0
2018-Feb-23 19:00N 37°49' W 122°19'0 0.0
2018-Feb-23 18:30N 37°49' W 122°19'0 0.0
2018-Feb-23 18:00N 37°49' W 122°19'0 0.0
2018-Feb-23 17:30N 37°49' W 122°19'0 0.0
2018-Feb-23 17:00N 37°49' W 122°19'0 0.0
2018-Feb-23 16:30N 37°49' W 122°19'0 0.0
2018-Feb-23 16:00N 37°49' W 122°19'1 1.1
2018-Feb-23 15:30N 37°49' W 122°19'1 1.1
2018-Feb-23 15:00N 37°49' W 122°19'0 0.0
2018-Feb-23 14:30N 37°49' W 122°19'0 0.0
2018-Feb-23 14:00N 37°49' W 122°19'0 0.0
2018-Feb-23 13:30N 37°49' W 122°19'0 0.7
2018-Feb-23 13:00N 37°49' W 122°19'2 3.7
2018-Feb-23 12:30N 37°50' W 122°21'1 2.9
2018-Feb-23 12:00N 37°49' W 122°20'1 2.5
2018-Feb-23 11:30N 37°49' W 122°19'1 1.0
2018-Feb-23 11:00N 37°49' W 122°19'1 1.0
2018-Feb-23 10:30N 37°49' W 122°19'0 0.0
2018-Feb-23 10:00N 37°49' W 122°19'0 0.0
2018-Feb-23 09:30N 37°49' W 122°19'0 0.0
2018-Feb-23 09:00N 37°49' W 122°19'0 0.0
2018-Feb-23 08:30N 37°49' W 122°19'0 0.0
2018-Feb-23 08:00N 37°49' W 122°19'0 0.0
2018-Feb-23 07:31N 37°49' W 122°19'0 0.0
2018-Feb-23 07:00N 37°49' W 122°19'0 0.0
2018-Feb-23 06:30N 37°49' W 122°19'0 0.0
2018-Feb-23 06:01N 37°49' W 122°19'0 0.0
2018-Feb-23 05:30N 37°49' W 122°19'0 0.0
2018-Feb-23 05:00N 37°49' W 122°19'0 0.6
2018-Feb-23 04:30N 37°49' W 122°19'0 0.0
2018-Feb-23 04:00N 37°49' W 122°19'0 0.0
2018-Feb-23 03:30N 37°49' W 122°19'0 0.0
2018-Feb-23 03:00N 37°49' W 122°19'0 0.0
2018-Feb-23 02:30N 37°49' W 122°19'1 1.4
2018-Feb-23 02:00N 37°49' W 122°19'1 1.7
2018-Feb-23 01:30N 37°49' W 122°19'0 0.0
2018-Feb-23 00:57N 37°49' W 122°19'0 0.0
2018-Feb-23 00:31N 37°49' W 122°19'0 0.0
2018-Feb-23 00:00N 37°49' W 122°19'0 0.0
2018-Feb-22 23:30N 37°49' W 122°19'0 0.0
2018-Feb-22 22:59N 37°49' W 122°19'0 0.0
2018-Feb-22 22:31N 37°49' W 122°19'0 0.0
2018-Feb-22 22:00N 37°49' W 122°19'0 0.0
2018-Feb-22 21:30N 37°49' W 122°19'0 0.0
2018-Feb-22 21:01N 37°49' W 122°19'0 0.0
2018-Feb-22 20:30N 37°49' W 122°19'0 0.0
2018-Feb-22 20:01N 37°49' W 122°19'0 0.0
2018-Feb-22 19:30N 37°49' W 122°19'0 0.0
2018-Feb-22 19:01N 37°49' W 122°19'0 0.0
2018-Feb-22 18:31N 37°49' W 122°19'0 0.1
2018-Feb-22 18:00N 37°49' W 122°19'1 1.6
2018-Feb-22 17:31N 37°49' W 122°19'1 1.6
2018-Feb-22 17:00N 37°49' W 122°19'0 0.0
2018-Feb-22 16:28N 37°49' W 122°19'0 0.0
2018-Feb-22 16:00N 37°49' W 122°19'0 0.0
2018-Feb-22 15:30N 37°49' W 122°19'0 0.0
2018-Feb-22 15:01N 37°49' W 122°19'0 0.0
2018-Feb-22 14:29N 37°49' W 122°19'0 0.0
2018-Feb-22 14:01N 37°49' W 122°19'0 0.0
2018-Feb-22 13:30N 37°49' W 122°19'0 0.0
2018-Feb-22 13:00N 37°49' W 122°19'0 0.0
2018-Feb-22 12:30N 37°49' W 122°19'0 0.0
2018-Feb-22 12:01N 37°49' W 122°19'0 0.0
2018-Feb-22 11:30N 37°49' W 122°19'0 0.0
2018-Feb-22 11:00N 37°49' W 122°19'0 0.0
2018-Feb-22 10:30N 37°49' W 122°19'0 0.0
2018-Feb-22 10:01N 37°49' W 122°19'0 0.0
2018-Feb-22 09:31N 37°49' W 122°19'0 0.0
2018-Feb-22 09:01N 37°49' W 122°19'0 0.0
2018-Feb-22 08:31N 37°49' W 122°19'0 0.0
2018-Feb-22 08:01N 37°49' W 122°19'0 0.0
2018-Feb-22 07:30N 37°49' W 122°19'0 0.0
2018-Feb-22 07:00N 37°49' W 122°19'0 0.0
2018-Feb-22 06:31N 37°49' W 122°19'0 0.0
2018-Feb-22 06:00N 37°49' W 122°19'0 0.0
2018-Feb-22 05:30N 37°49' W 122°19'0 0.0
2018-Feb-22 05:01N 37°49' W 122°19'0 0.0
2018-Feb-22 04:31N 37°49' W 122°19'0 0.0
2018-Feb-22 04:01N 37°49' W 122°19'0 0.0
2018-Feb-22 03:30N 37°49' W 122°19'0 0.1
2018-Feb-22 03:00N 37°49' W 122°19'2 4.9
2018-Feb-22 02:31N 37°50' W 122°22'2 3.7
2018-Feb-22 02:01N 37°50' W 122°24'3 6.9
2018-Feb-22 01:31N 37°49' W 122°28'4 8.2
2018-Feb-22 01:01N 37°47' W 122°33'4 8.6
2018-Feb-22 00:30N 37°45' W 122°38'4 7.4
2018-Feb-22 00:00N 37°43' W 122°42'5 9.1
2018-Feb-21 23:29N 37°41' W 122°47'4 9.1
2018-Feb-21 23:00N 37°39' W 122°51'5 9.1
2018-Feb-21 22:30N 37°36' W 122°56'4 8.8
2018-Feb-21 22:01N 37°34' W 123°01'9 2.0
2018-Feb-21 17:26N 37°38' W 123°11'3 7.9
2018-Feb-21 17:01N 37°38' W 123°07'4 7.5
2018-Feb-21 16:31N 37°38' W 123°02'4 8.0
2018-Feb-21 16:01N 37°38' W 122°57'4 7.9
2018-Feb-21 15:28N 37°40' W 122°52'4 8.1
2018-Feb-21 15:01N 37°42' W 122°48'4 8.0
2018-Feb-21 14:31N 37°44' W 122°44'4 7.9
2018-Feb-21 14:00N 37°45' W 122°39'4 8.3
2018-Feb-21 13:30N 37°47' W 122°34'5 9.2
2018-Feb-21 13:01N 37°49' W 122°29'4 7.8
2018-Feb-21 12:31N 37°50' W 122°24'3 6.8
2018-Feb-21 12:01N 37°48' W 122°21'1 2.6
2018-Feb-21 11:31N 37°49' W 122°19'2 4.0
2018-Feb-21 11:01N 37°48' W 122°21'2 4.0
2018-Feb-21 10:31N 37°49' W 122°24'510.6
2018-Feb-21 10:01N 37°48' W 122°30'610.9
2018-Feb-21 09:30N 37°46' W 122°37'5 9.9
2018-Feb-21 09:00N 37°43' W 122°42'4 7.4
2018-Feb-21 08:30N 37°41' W 122°46'5 9.5
2018-Feb-21 07:57N 37°38' W 122°51'5 9.7
2018-Feb-21 07:27N 37°36' W 122°57'5 9.7
2018-Feb-21 06:57N 37°33' W 123°02'8 1.8
2018-Feb-21 02:32N 37°37' W 123°11'0 6.2
2018-Feb-21 02:30N 37°37' W 123°10'3 7.1
2018-Feb-21 02:01N 37°37' W 123°06'4 7.2
2018-Feb-21 01:31N 37°36' W 123°01'4 7.5
2018-Feb-21 01:00N 37°38' W 122°57'4 7.7
2018-Feb-21 00:31N 37°40' W 122°53'4 7.8
2018-Feb-21 00:01N 37°42' W 122°49'4 7.7
2018-Feb-20 23:30N 37°43' W 122°44'4 7.2
2018-Feb-20 23:01N 37°45' W 122°40'4 7.1
2018-Feb-20 22:30N 37°47' W 122°36'3 6.7
2018-Feb-20 22:01N 37°48' W 122°32'3 6.2
2018-Feb-20 21:31N 37°49' W 122°29'3 5.3
2018-Feb-20 21:00N 37°50' W 122°25'3 6.3
2018-Feb-20 20:31N 37°48' W 122°22'2 4.8
2018-Feb-20 20:00N 37°49' W 122°19'1 1.3
2018-Feb-20 19:31N 37°49' W 122°19'0 0.0
2018-Feb-20 19:01N 37°49' W 122°19'0 0.0
2018-Feb-20 18:31N 37°49' W 122°19'0 0.1
2018-Feb-20 18:00N 37°49' W 122°19'0 0.0
2018-Feb-20 17:31N 37°49' W 122°19'0 0.0
2018-Feb-20 17:01N 37°49' W 122°19'0 0.0
2018-Feb-20 16:31N 37°49' W 122°19'0 0.0
2018-Feb-20 16:00N 37°49' W 122°19'0 0.0
2018-Feb-20 15:31N 37°49' W 122°19'0 0.0
2018-Feb-20 15:01N 37°49' W 122°19'0 0.0
2018-Feb-20 14:31N 37°49' W 122°19'0 0.0
2018-Feb-20 14:00N 37°49' W 122°19'0 0.0
2018-Feb-20 13:31N 37°49' W 122°19'0 0.0
2018-Feb-20 13:01N 37°49' W 122°19'0 0.0
2018-Feb-20 12:30N 37°49' W 122°19'0 0.0
2018-Feb-20 12:01N 37°49' W 122°19'0 0.0
2018-Feb-20 11:30N 37°49' W 122°19'0 0.0
2018-Feb-20 11:01N 37°49' W 122°19'0 0.0
2018-Feb-20 10:31N 37°49' W 122°19'0 0.0
2018-Feb-20 10:01N 37°49' W 122°19'0 0.0
2018-Feb-20 09:31N 37°49' W 122°19'0 0.0
2018-Feb-20 09:00N 37°49' W 122°19'0 0.0
2018-Feb-20 08:30N 37°49' W 122°19'0 0.0
2018-Feb-20 08:01N 37°49' W 122°19'0 0.0
2018-Feb-20 07:31N 37°49' W 122°19'0 0.0
2018-Feb-20 07:01N 37°49' W 122°19'0 0.0
2018-Feb-20 06:30N 37°49' W 122°19'0 0.0
2018-Feb-20 06:01N 37°49' W 122°19'0 0.0
2018-Feb-20 05:30N 37°49' W 122°19'0 0.0
2018-Feb-20 05:01N 37°49' W 122°19'0 0.0
2018-Feb-20 04:30N 37°49' W 122°19'0 0.0
2018-Feb-20 04:01N 37°49' W 122°19'0 0.0
2018-Feb-20 03:30N 37°49' W 122°19'0 0.0
2018-Feb-20 03:01N 37°49' W 122°19'0 0.0
2018-Feb-20 02:30N 37°49' W 122°19'0 0.0
2018-Feb-20 02:01N 37°49' W 122°19'0 0.0
2018-Feb-20 01:31N 37°49' W 122°19'0 0.0
2018-Feb-20 01:00N 37°49' W 122°19'0 0.0
2018-Feb-20 00:31N 37°49' W 122°19'0 0.0
2018-Feb-20 00:01N 37°49' W 122°19'0 0.0
2018-Feb-19 23:31N 37°49' W 122°19'0 0.0
2018-Feb-19 23:01N 37°49' W 122°19'0 0.0
2018-Feb-19 22:30N 37°49' W 122°19'0 0.0
2018-Feb-19 22:01N 37°49' W 122°19'0 0.5
2018-Feb-19 21:31N 37°49' W 122°19'2 3.8
2018-Feb-19 21:01N 37°50' W 122°21'0 0.1
2018-Feb-19 20:31N 37°50' W 122°21'0 0.0
2018-Feb-19 20:00N 37°50' W 122°21'1 1.6
2018-Feb-19 19:30N 37°49' W 122°21'2 4.4
2018-Feb-19 19:00N 37°49' W 122°19'0 0.0
2018-Feb-19 18:30N 37°49' W 122°19'0 0.0
2018-Feb-19 18:01N 37°49' W 122°19'0 0.0
2018-Feb-19 17:31N 37°49' W 122°19'0 0.0
2018-Feb-19 17:00N 37°49' W 122°19'0 0.0
2018-Feb-19 16:30N 37°49' W 122°19'0 0.0
2018-Feb-19 16:01N 37°49' W 122°19'0 0.0
2018-Feb-19 15:31N 37°49' W 122°19'0 0.0
2018-Feb-19 15:00N 37°49' W 122°19'0 0.0
2018-Feb-19 14:31N 37°49' W 122°19'0 0.0
2018-Feb-19 14:00N 37°49' W 122°19'0 0.0
2018-Feb-19 13:31N 37°49' W 122°19'2 4.4
2018-Feb-19 13:00N 37°49' W 122°21'1 1.5
2018-Feb-19 12:31N 37°50' W 122°21'0 0.0
2018-Feb-19 12:01N 37°50' W 122°21'0 0.0
2018-Feb-19 11:31N 37°50' W 122°21'0 0.0
2018-Feb-19 11:00N 37°50' W 122°21'0 0.1
2018-Feb-19 10:31N 37°50' W 122°21'0 0.0
2018-Feb-19 10:01N 37°50' W 122°21'0 0.0
2018-Feb-19 09:31N 37°50' W 122°21'0 0.0
2018-Feb-19 09:01N 37°50' W 122°21'0 0.0
2018-Feb-19 08:31N 37°50' W 122°21'0 0.0
2018-Feb-19 08:01N 37°50' W 122°21'0 0.0
2018-Feb-19 07:31N 37°50' W 122°21'0 0.0
2018-Feb-19 07:01N 37°50' W 122°21'0 0.0
2018-Feb-19 06:31N 37°50' W 122°21'0 0.0
2018-Feb-19 06:00N 37°50' W 122°21'0 0.0
2018-Feb-19 05:30N 37°50' W 122°21'0 0.0
2018-Feb-19 05:01N 37°50' W 122°21'0 0.0
2018-Feb-19 04:30N 37°50' W 122°21'0 0.0
2018-Feb-19 04:01N 37°50' W 122°21'0 0.1
2018-Feb-19 03:31N 37°50' W 122°21'0 0.0
2018-Feb-19 03:00N 37°50' W 122°21'0 0.0
2018-Feb-19 02:31N 37°50' W 122°21'0 0.0
2018-Feb-19 02:00N 37°50' W 122°21'0 0.0
2018-Feb-19 01:31N 37°50' W 122°21'0 0.0
2018-Feb-19 01:01N 37°50' W 122°21'0 0.3
2018-Feb-19 00:31N 37°50' W 122°21'2 3.3
2018-Feb-19 00:00N 37°49' W 122°19'1 1.3
2018-Feb-18 23:30N 37°49' W 122°19'0 0.0
2018-Feb-18 23:01N 37°49' W 122°19'0 0.0
2018-Feb-18 22:31N 37°49' W 122°19'0 0.0
2018-Feb-18 22:00N 37°49' W 122°19'0 0.0
2018-Feb-18 21:30N 37°49' W 122°19'0 0.0
2018-Feb-18 20:59N 37°49' W 122°19'0 0.0
2018-Feb-18 20:31N 37°49' W 122°19'0 0.0
2018-Feb-18 20:00N 37°49' W 122°19'0 0.0
2018-Feb-18 19:31N 37°49' W 122°19'0 0.0
2018-Feb-18 19:00N 37°49' W 122°19'0 0.0
2018-Feb-18 18:31N 37°49' W 122°19'0 0.0
2018-Feb-18 18:00N 37°49' W 122°19'0 0.0
2018-Feb-18 17:30N 37°49' W 122°19'0 0.1
2018-Feb-18 17:01N 37°49' W 122°19'0 0.0
2018-Feb-18 16:31N 37°49' W 122°19'0 0.0
2018-Feb-18 16:01N 37°49' W 122°19'0 0.0
2018-Feb-18 15:31N 37°49' W 122°19'0 0.0
2018-Feb-18 15:01N 37°49' W 122°19'0 0.0
2018-Feb-18 14:31N 37°49' W 122°19'0 0.0
2018-Feb-18 14:00N 37°49' W 122°19'0 0.0
2018-Feb-18 13:31N 37°49' W 122°19'0 0.0
2018-Feb-18 13:00N 37°49' W 122°19'0 0.0
2018-Feb-18 12:31N 37°49' W 122°19'0 0.0
2018-Feb-18 12:00N 37°49' W 122°19'0 0.0
2018-Feb-18 11:30N 37°49' W 122°19'0 0.0
2018-Feb-18 11:00N 37°49' W 122°19'0 0.0
2018-Feb-18 10:30N 37°49' W 122°19'0 0.0
2018-Feb-18 10:01N 37°49' W 122°19'0 0.0
2018-Feb-18 09:30N 37°49' W 122°19'0 0.0
2018-Feb-18 09:01N 37°49' W 122°19'0 0.0
2018-Feb-18 08:31N 37°49' W 122°19'0 0.0
2018-Feb-18 08:00N 37°49' W 122°19'0 0.0
2018-Feb-18 07:30N 37°49' W 122°19'0 0.9
2018-Feb-18 07:01N 37°49' W 122°19'0 0.5
2018-Feb-18 06:31N 37°49' W 122°19'0 0.5
2018-Feb-18 06:01N 37°49' W 122°19'0 0.0
2018-Feb-18 05:30N 37°49' W 122°19'0 0.0
2018-Feb-18 05:01N 37°49' W 122°19'0 0.0
2018-Feb-18 04:31N 37°49' W 122°19'0 0.0
2018-Feb-18 04:01N 37°49' W 122°19'0 0.0
2018-Feb-18 03:31N 37°49' W 122°19'0 0.0
2018-Feb-18 03:01N 37°49' W 122°19'0 0.0
2018-Feb-18 02:31N 37°49' W 122°19'0 0.0
2018-Feb-18 02:00N 37°49' W 122°19'0 0.0
2018-Feb-18 01:31N 37°49' W 122°19'0 0.0
2018-Feb-18 01:01N 37°49' W 122°19'0 0.0
2018-Feb-18 00:31N 37°49' W 122°19'0 0.0
2018-Feb-18 00:01N 37°49' W 122°19'0 0.0
2018-Feb-17 23:31N 37°49' W 122°19'0 0.0
2018-Feb-17 23:01N 37°49' W 122°19'0 0.0
2018-Feb-17 22:31N 37°49' W 122°19'0 0.0
2018-Feb-17 22:00N 37°49' W 122°19'0 0.0
2018-Feb-17 21:30N 37°49' W 122°19'0 0.0
2018-Feb-17 21:01N 37°49' W 122°19'0 0.0
2018-Feb-17 20:30N 37°49' W 122°19'0 0.0
2018-Feb-17 20:01N 37°49' W 122°19'0 0.0
2018-Feb-17 19:31N 37°49' W 122°19'0 0.0
2018-Feb-17 19:01N 37°49' W 122°19'0 0.0
2018-Feb-17 18:30N 37°49' W 122°19'0 0.0
2018-Feb-17 18:00N 37°49' W 122°19'0 0.0
2018-Feb-17 17:30N 37°49' W 122°19'0 0.0
2018-Feb-17 17:01N 37°49' W 122°19'0 0.0
2018-Feb-17 16:30N 37°49' W 122°19'0 0.1
2018-Feb-17 16:01N 37°49' W 122°19'0 0.2
2018-Feb-17 15:31N 37°49' W 122°19'2 4.9
2018-Feb-17 15:01N 37°50' W 122°22'2 4.2
2018-Feb-17 14:30N 37°49' W 122°24'3 6.8
2018-Feb-17 14:01N 37°49' W 122°29'3 5.7
2018-Feb-17 13:31N 37°48' W 122°32'2 5.0
2018-Feb-17 13:01N 37°47' W 122°35'4 7.1
2018-Feb-17 12:31N 37°45' W 122°39'4 8.4
2018-Feb-17 12:00N 37°43' W 122°43'3 6.4
2018-Feb-17 11:30N 37°41' W 122°47'4 8.0
2018-Feb-17 11:00N 37°39' W 122°51'4 8.0
2018-Feb-17 10:31N 37°36' W 122°55'4 7.5
2018-Feb-17 10:01N 37°34' W 122°59'4 7.2
2018-Feb-17 09:31N 37°33' W 123°03'4 7.6
2018-Feb-17 09:00N 37°34' W 123°07'17 7.0
2018-Feb-17 06:30N 37°39' W 123°28'4 6.5
2018-Feb-17 05:56N 37°38' W 123°24'3 6.3
2018-Feb-17 05:28N 37°38' W 123°20'4 6.3
2018-Feb-17 04:45N 37°38' W 123°14'2 6.3
2018-Feb-17 04:30N 37°37' W 123°12'3 6.5
2018-Feb-17 04:00N 37°37' W 123°08'3 6.5
2018-Feb-17 03:31N 37°37' W 123°04'3 6.4
2018-Feb-17 03:01N 37°37' W 123°00'3 6.8
2018-Feb-17 02:31N 37°38' W 122°56'4 7.5
2018-Feb-17 02:00N 37°40' W 122°52'4 7.5
2018-Feb-17 01:31N 37°42' W 122°48'4 7.4
2018-Feb-17 01:01N 37°44' W 122°44'3 6.9
2018-Feb-17 00:30N 37°45' W 122°40'4 8.2
2018-Feb-17 00:01N 37°46' W 122°35'4 8.4
2018-Feb-16 23:31N 37°48' W 122°30'4 8.0
2018-Feb-16 23:00N 37°50' W 122°26'4 8.0
2018-Feb-16 22:31N 37°48' W 122°21'2 3.4
2018-Feb-16 22:01N 37°49' W 122°19'0 0.8
2018-Feb-16 21:29N 37°49' W 122°19'0 0.1
2018-Feb-16 21:00N 37°49' W 122°19'0 0.1
2018-Feb-16 20:30N 37°49' W 122°19'0 0.1
2018-Feb-16 20:01N 37°49' W 122°19'0 0.5
2018-Feb-16 19:30N 37°49' W 122°19'0 0.0
2018-Feb-16 19:00N 37°49' W 122°19'0 0.1
2018-Feb-16 18:30N 37°49' W 122°19'0 0.1
2018-Feb-16 18:01N 37°49' W 122°19'0 0.0
2018-Feb-16 17:31N 37°49' W 122°19'0 0.0
2018-Feb-16 17:01N 37°49' W 122°19'0 0.0
2018-Feb-16 16:31N 37°49' W 122°19'0 0.0
2018-Feb-16 16:01N 37°49' W 122°19'0 0.0
2018-Feb-16 15:31N 37°49' W 122°19'0 0.0
2018-Feb-16 15:00N 37°49' W 122°19'0 0.0
2018-Feb-16 14:30N 37°49' W 122°19'0 0.0
2018-Feb-16 14:01N 37°49' W 122°19'0 0.0
2018-Feb-16 13:30N 37°49' W 122°19'0 0.0
2018-Feb-16 13:01N 37°49' W 122°19'0 0.0
2018-Feb-16 12:31N 37°49' W 122°19'0 0.0
2018-Feb-16 12:00N 37°49' W 122°19'0 0.0
2018-Feb-16 11:30N 37°49' W 122°19'0 0.0
2018-Feb-16 11:00N 37°49' W 122°19'0 0.0
2018-Feb-16 10:31N 37°49' W 122°19'0 0.0
2018-Feb-16 09:59N 37°49' W 122°19'0 0.0
2018-Feb-16 09:31N 37°49' W 122°19'0 0.0
2018-Feb-16 09:01N 37°49' W 122°19'0 0.0
2018-Feb-16 08:30N 37°49' W 122°19'0 0.0
2018-Feb-16 08:01N 37°49' W 122°19'0 0.0
2018-Feb-16 07:31N 37°49' W 122°19'0 0.0
2018-Feb-16 07:01N 37°49' W 122°19'0 0.0
2018-Feb-16 06:29N 37°49' W 122°19'0 0.0
2018-Feb-16 06:01N 37°49' W 122°19'0 0.0
2018-Feb-16 05:30N 37°49' W 122°19'0 0.6
2018-Feb-16 05:00N 37°49' W 122°19'0 0.6
2018-Feb-16 04:31N 37°49' W 122°19'0 0.0
2018-Feb-16 04:01N 37°49' W 122°19'0 0.0
2018-Feb-16 03:30N 37°49' W 122°19'0 0.0
2018-Feb-16 03:01N 37°49' W 122°19'0 0.0
2018-Feb-16 02:30N 37°49' W 122°19'0 0.0
2018-Feb-16 02:00N 37°49' W 122°19'0 0.0
2018-Feb-16 01:31N 37°49' W 122°19'0 0.0
2018-Feb-16 01:00N 37°49' W 122°19'0 0.0
2018-Feb-16 00:31N 37°49' W 122°19'0 0.7
2018-Feb-16 00:01N 37°49' W 122°19'0 0.7
2018-Feb-15 23:31N 37°49' W 122°19'0 0.0
2018-Feb-15 23:00N 37°49' W 122°19'0 0.0
2018-Feb-15 22:31N 37°49' W 122°19'0 0.0
2018-Feb-15 22:00N 37°49' W 122°19'0 0.0
2018-Feb-15 21:31N 37°49' W 122°19'0 0.0
2018-Feb-15 21:00N 37°49' W 122°19'0 0.0
2018-Feb-15 20:30N 37°49' W 122°19'0 0.0
2018-Feb-15 20:01N 37°49' W 122°19'0 0.0
2018-Feb-15 19:30N 37°49' W 122°19'0 0.0
2018-Feb-15 19:00N 37°49' W 122°19'0 0.0
2018-Feb-15 18:31N 37°49' W 122°19'0 0.0
2018-Feb-15 18:01N 37°49' W 122°19'0 0.0
2018-Feb-15 17:31N 37°49' W 122°19'0 0.9
2018-Feb-15 17:01N 37°49' W 122°19'0 0.9
2018-Feb-15 16:31N 37°49' W 122°19'0 0.6
2018-Feb-15 16:01N 37°49' W 122°19'0 0.6
2018-Feb-15 15:30N 37°49' W 122°19'0 0.0
2018-Feb-15 15:01N 37°49' W 122°19'0 0.0
2018-Feb-15 14:30N 37°49' W 122°19'0 0.0
2018-Feb-15 14:00N 37°49' W 122°19'0 0.0
2018-Feb-15 13:30N 37°49' W 122°19'0 0.0
2018-Feb-15 13:01N 37°49' W 122°19'0 0.0
2018-Feb-15 12:30N 37°49' W 122°19'0 0.0
2018-Feb-15 12:00N 37°49' W 122°19'0 0.0
2018-Feb-15 11:29N 37°49' W 122°19'0 0.0
2018-Feb-15 11:01N 37°49' W 122°19'0 0.0
2018-Feb-15 10:31N 37°49' W 122°19'0 0.0
2018-Feb-15 10:00N 37°49' W 122°19'0 0.0
2018-Feb-15 09:30N 37°49' W 122°19'0 0.0
2018-Feb-15 09:00N 37°49' W 122°19'0 0.0
2018-Feb-15 08:30N 37°49' W 122°19'0 0.0
2018-Feb-15 08:01N 37°49' W 122°19'0 0.0
2018-Feb-15 07:31N 37°49' W 122°19'0 0.0
2018-Feb-15 07:01N 37°49' W 122°19'0 0.0
2018-Feb-15 06:30N 37°49' W 122°19'0 0.0
2018-Feb-15 06:00N 37°49' W 122°19'0 0.0
2018-Feb-15 05:31N 37°49' W 122°19'0 0.0
2018-Feb-15 05:00N 37°49' W 122°19'0 0.0
2018-Feb-15 04:30N 37°49' W 122°19'0 0.0
2018-Feb-15 04:00N 37°49' W 122°19'0 0.0
2018-Feb-15 03:30N 37°49' W 122°19'0 0.0
2018-Feb-15 02:59N 37°49' W 122°19'0 0.0
2018-Feb-15 02:31N 37°49' W 122°19'0 0.0
2018-Feb-15 02:00N 37°49' W 122°19'0 0.0
2018-Feb-15 01:31N 37°49' W 122°19'0 0.0
2018-Feb-15 01:00N 37°49' W 122°19'0 0.0
2018-Feb-15 00:31N 37°49' W 122°19'0 0.0
2018-Feb-15 00:00N 37°49' W 122°19'0 0.0
2018-Feb-14 23:31N 37°49' W 122°19'0 0.0
2018-Feb-14 23:00N 37°49' W 122°19'  

Dump ship's entire track history